Time;durP1;ratioP1;P1;durP2;ratioP2;P2;SDS_P1;SDS_P2;PMS_P1;PMS_P2;Temp;Humidity;BMP_temperature;BMP_pressure;BME280_temperature;BME280_humidity;BME280_pressure;Samples;Min_cycle;Max_cycle;Signal;HPM_P1;HPM_P2
2023/09/15 00:00:25;;;;;;;2.38;1.40;;;;;;;17.12;54.97;97503.53;4957541;28;20153;-85
2023/09/15 00:02:55;;;;;;;3.55;1.23;;;;;;;17.08;55.06;97498.03;4948398;28;20335;-83
2023/09/15 00:05:21;;;;;;;3.03;1.30;;;;;;;17.02;55.70;97505.19;4947054;28;20635;-83
2023/09/15 00:07:46;;;;;;;3.13;1.17;;;;;;;16.99;55.49;97504.97;4938791;28;20100;-85
2023/09/15 00:10:12;;;;;;;3.25;1.38;;;;;;;16.85;55.56;97492.47;4923295;28;20307;-85
2023/09/15 00:12:39;;;;;;;3.95;1.50;;;;;;;16.81;55.61;97491.44;4935171;28;20110;-85
2023/09/15 00:15:07;;;;;;;2.40;1.35;;;;;;;16.70;55.58;97484.69;4903336;28;20205;-85
2023/09/15 00:17:42;;;;;;;2.58;1.10;;;;;;;16.89;55.85;97505.06;4923148;28;20186;-85
2023/09/15 00:20:18;;;;;;;3.13;1.40;;;;;;;16.81;56.63;97509.03;4917455;28;20197;-85
2023/09/15 00:22:51;;;;;;;3.97;1.27;;;;;;;16.64;55.93;97483.16;4927980;28;20257;-86
2023/09/15 00:25:19;;;;;;;4.03;1.42;;;;;;;16.86;56.02;97509.03;4932625;28;21525;-85
2023/09/15 00:27:56;;;;;;;2.13;1.20;;;;;;;16.86;56.31;97506.38;4934799;28;20338;-85
2023/09/15 00:30:23;;;;;;;2.53;1.90;;;;;;;16.77;56.27;97510.66;4916924;28;20197;-86
2023/09/15 00:32:49;;;;;;;2.47;1.38;;;;;;;16.81;55.92;97514.28;4900381;28;20270;-85
2023/09/15 00:35:23;;;;;;;2.67;1.70;;;;;;;16.91;56.17;97508.97;4917365;28;20221;-85
2023/09/15 00:37:49;;;;;;;3.42;1.45;;;;;;;16.86;55.81;97516.91;4920646;28;20193;-83
2023/09/15 00:40:19;;;;;;;3.78;2.08;;;;;;;16.87;55.69;97507.19;4918892;28;20154;-85
2023/09/15 00:42:45;;;;;;;2.40;1.10;;;;;;;16.84;55.61;97504.06;4914297;28;20200;-85
2023/09/15 00:45:14;;;;;;;5.43;1.73;;;;;;;16.62;56.25;97483.44;4920106;28;20183;-85
2023/09/15 00:47:43;;;;;;;3.95;1.60;;;;;;;16.69;56.79;97505.97;4906815;28;20398;-85
2023/09/15 00:50:11;;;;;;;2.47;1.40;;;;;;;16.59;56.87;97498.97;4917163;28;20580;-85
2023/09/15 00:52:37;;;;;;;3.35;1.20;;;;;;;16.64;56.76;97499.72;4922144;28;20096;-85
2023/09/15 00:55:03;;;;;;;2.28;1.52;;;;;;;16.55;56.91;97490.84;4943912;28;20263;-85
2023/09/15 00:57:29;;;;;;;2.45;1.38;;;;;;;16.56;56.89;97497.69;4925450;28;20190;-85
2023/09/15 00:59:54;;;;;;;2.80;1.20;;;;;;;16.55;56.54;97495.31;4918141;28;20200;-85
2023/09/15 01:02:23;;;;;;;2.00;1.50;;;;;;;16.53;56.70;97495.59;4935242;28;20204;-86
2023/09/15 01:04:48;;;;;;;2.60;1.35;;;;;;;16.44;56.44;97479.63;4920128;28;20188;-85
2023/09/15 01:07:14;;;;;;;3.75;1.95;;;;;;;16.38;56.38;97475.47;4905345;28;20204;-85
2023/09/15 01:09:40;;;;;;;3.22;1.30;;;;;;;16.48;57.29;97495.63;4899536;28;20201;-86
2023/09/15 01:12:07;;;;;;;3.45;1.83;;;;;;;16.44;56.80;97494.63;4925203;28;20647;-85
2023/09/15 01:14:34;;;;;;;1.83;1.30;;;;;;;16.46;56.60;97492.50;4900421;28;20190;-86
2023/09/15 01:17:10;;;;;;;3.25;1.60;;;;;;;16.35;57.07;97462.06;4923397;28;20094;-85
2023/09/15 01:20:00;;;;;;;2.05;1.10;;;;;;;16.51;56.74;97492.47;4897670;28;20193;-86
2023/09/15 01:23:00;;;;;;;3.35;1.27;;;;;;;16.45;56.45;97481.22;4914945;28;20227;-84
2023/09/15 01:25:43;;;;;;;3.20;1.70;;;;;;;16.41;56.65;97485.41;4928878;28;20259;-85
2023/09/15 01:28:17;;;;;;;3.67;1.30;;;;;;;16.31;57.47;97484.72;4922544;28;20057;-85
2023/09/15 01:30:44;;;;;;;2.08;1.52;;;;;;;16.05;57.42;97463.88;4944227;28;20274;-85
2023/09/15 01:33:11;;;;;;;3.13;1.70;;;;;;;16.12;57.70;97474.06;4933666;28;20656;-85
2023/09/15 01:35:37;;;;;;;4.32;1.60;;;;;;;16.04;57.67;97473.59;4935116;28;20169;-85
2023/09/15 01:38:05;;;;;;;2.88;1.20;;;;;;;16.07;57.39;97454.66;4943231;28;20371;-85
2023/09/15 01:40:31;;;;;;;2.60;1.48;;;;;;;16.07;57.39;97459.94;4933768;28;20262;-84
2023/09/15 01:42:56;;;;;;;1.33;1.23;;;;;;;16.04;56.87;97459.66;4937116;28;20306;-83
2023/09/15 01:45:22;;;;;;;2.67;1.33;;;;;;;16.01;57.44;97460.22;4918084;28;20281;-85
2023/09/15 01:47:48;;;;;;;2.13;1.25;;;;;;;16.03;57.63;97472.00;4936728;28;20155;-85
2023/09/15 01:50:14;;;;;;;2.75;1.25;;;;;;;15.97;57.82;97467.06;4935844;28;20270;-85
2023/09/15 01:52:41;;;;;;;4.22;1.60;;;;;;;15.87;58.78;97468.69;4947996;28;20098;-85
2023/09/15 01:55:07;;;;;;;3.15;1.45;;;;;;;15.66;58.57;97443.56;4939354;28;20058;-85
2023/09/15 01:57:32;;;;;;;2.45;1.30;;;;;;;15.70;58.94;97468.25;4938147;28;20494;-83
2023/09/15 01:59:58;;;;;;;2.38;1.45;;;;;;;15.64;58.49;97475.34;4942347;28;20185;-85
2023/09/15 02:02:24;;;;;;;5.10;1.40;;;;;;;15.57;58.96;97472.22;4920931;28;20170;-85
2023/09/15 02:04:49;;;;;;;3.30;1.67;;;;;;;15.39;59.98;97459.69;4935574;28;20037;-85
2023/09/15 02:07:15;;;;;;;2.85;1.50;;;;;;;15.26;60.29;97445.31;4913565;28;20299;-85
2023/09/15 02:09:40;;;;;;;4.22;1.70;;;;;;;15.27;59.52;97452.16;4938146;28;20029;-85
2023/09/15 02:12:09;;;;;;;2.55;1.23;;;;;;;15.39;59.66;97465.75;4922031;28;20262;-85
2023/09/15 02:14:34;;;;;;;4.00;1.20;;;;;;;15.28;59.91;97451.84;4933999;28;20042;-85
2023/09/15 02:17:00;;;;;;;3.92;1.42;;;;;;;15.34;60.14;97456.03;4912573;28;20593;-84
2023/09/15 02:19:26;;;;;;;3.25;1.50;;;;;;;15.44;59.70;97473.59;4926401;28;20260;-84
2023/09/15 02:21:53;;;;;;;2.33;1.40;;;;;;;15.23;59.82;97462.38;4927204;28;20253;-85
2023/09/15 02:24:19;;;;;;;4.13;1.50;;;;;;;15.32;60.25;97475.75;4926967;28;20202;-84
2023/09/15 02:26:47;;;;;;;3.25;2.15;;;;;;;15.25;60.35;97464.72;4919795;28;20217;-85
2023/09/15 02:29:14;;;;;;;2.88;1.60;;;;;;;15.28;60.42;97469.44;4923181;28;20285;-84
2023/09/15 02:31:41;;;;;;;4.63;1.77;;;;;;;15.31;60.36;97463.66;4908209;28;20265;-85
2023/09/15 02:34:06;;;;;;;2.83;1.88;;;;;;;15.29;59.91;97455.28;4910641;28;20254;-85
2023/09/15 02:36:31;;;;;;;3.25;1.73;;;;;;;15.21;59.88;97451.34;4920015;28;20332;-85
2023/09/15 02:38:57;;;;;;;4.82;1.35;;;;;;;15.21;59.86;97440.09;4916095;28;20733;-85
2023/09/15 02:41:22;;;;;;;2.47;1.70;;;;;;;15.29;59.75;97450.03;4921221;28;20395;-85
2023/09/15 02:43:48;;;;;;;3.53;1.80;;;;;;;15.20;60.43;97449.81;4903066;28;20126;-85
2023/09/15 02:46:13;;;;;;;2.20;1.70;;;;;;;15.15;61.38;97457.69;4918724;28;20721;-85
2023/09/15 02:48:41;;;;;;;3.97;1.20;;;;;;;15.23;60.61;97448.47;4905190;28;20200;-85
2023/09/15 02:51:06;;;;;;;3.97;1.45;;;;;;;15.17;60.05;97447.72;4919652;28;20632;-85
2023/09/15 02:53:32;;;;;;;2.42;1.50;;;;;;;15.28;59.47;97445.81;4933857;28;20210;-85
2023/09/15 02:56:02;;;;;;;2.85;1.40;;;;;;;15.33;58.90;97446.59;4919605;28;20212;-85
2023/09/15 02:58:27;;;;;;;4.55;2.20;;;;;;;15.02;59.41;97419.69;4931479;28;20132;-84
2023/09/15 03:00:53;;;;;;;4.75;4.25;;;;;;;14.89;60.44;97425.47;4901746;28;20203;-85
2023/09/15 03:03:19;;;;;;;6.28;4.38;;;;;;;14.96;59.87;97431.25;4919887;28;20409;-86
2023/09/15 03:05:45;;;;;;;4.60;3.20;;;;;;;14.92;60.07;97430.97;4915903;28;20172;-85
2023/09/15 03:08:12;;;;;;;4.68;2.97;;;;;;;14.89;60.39;97428.09;4931430;28;20079;-85
2023/09/15 03:10:38;;;;;;;3.28;2.40;;;;;;;15.08;59.06;97423.88;4916253;28;20174;-85
2023/09/15 03:13:05;;;;;;;3.30;1.80;;;;;;;15.13;58.90;97439.59;4929420;28;20181;-85
2023/09/15 03:15:32;;;;;;;4.00;1.75;;;;;;;15.16;59.29;97452.19;4929269;28;20162;-85
2023/09/15 03:17:58;;;;;;;2.17;1.65;;;;;;;15.09;59.53;97451.66;4932578;28;20254;-85
2023/09/15 03:20:24;;;;;;;3.78;1.58;;;;;;;15.02;59.50;97440.66;4918121;28;20069;-85
2023/09/15 03:22:50;;;;;;;3.42;1.42;;;;;;;15.08;61.09;97444.84;4898051;28;20239;-85
2023/09/15 03:25:17;;;;;;;4.63;1.77;;;;;;;14.99;60.35;97430.69;4913950;28;20273;-85
2023/09/15 03:27:43;;;;;;;3.15;1.80;;;;;;;14.97;60.23;97444.06;4915372;28;20241;-85
2023/09/15 03:30:09;;;;;;;3.60;1.80;;;;;;;14.99;60.19;97443.81;4892926;28;20664;-85
2023/09/15 03:32:35;;;;;;;3.33;2.10;;;;;;;14.85;59.51;97413.97;4930211;28;20727;-84
2023/09/15 03:35:00;;;;;;;4.10;1.83;;;;;;;15.01;59.58;97433.88;4914306;28;20247;-85
2023/09/15 03:37:26;;;;;;;3.67;1.25;;;;;;;14.85;59.58;97413.97;4919341;28;20200;-85
2023/09/15 03:39:52;;;;;;;5.72;1.73;;;;;;;15.03;59.55;97441.44;4920359;28;20556;-85
2023/09/15 03:42:18;;;;;;;3.45;1.50;;;;;;;14.97;59.68;97427.56;4919928;28;20333;-86
2023/09/15 03:44:44;;;;;;;2.78;2.03;;;;;;;15.05;60.81;97429.63;4912658;28;20214;-86
2023/09/15 03:47:09;;;;;;;2.35;1.48;;;;;;;14.97;59.78;97411.81;4915088;28;20230;-85
2023/09/15 03:49:35;;;;;;;1.80;1.23;;;;;;;15.10;59.68;97423.59;4900073;28;20102;-85
2023/09/15 03:52:01;;;;;;;2.95;1.48;;;;;;;14.94;60.45;97407.91;4900724;28;20621;-85
2023/09/15 03:54:27;;;;;;;1.83;1.10;;;;;;;15.11;59.83;97433.84;4914047;28;20208;-85
2023/09/15 03:56:54;;;;;;;4.07;1.90;;;;;;;15.01;59.49;97407.63;4903940;28;20424;-85
2023/09/15 03:59:20;;;;;;;3.47;1.50;;;;;;;15.16;59.34;97425.94;4926421;28;20118;-85
2023/09/15 04:01:47;;;;;;;2.20;1.55;;;;;;;15.17;58.87;97438.00;4916563;28;20195;-85
2023/09/15 04:04:13;;;;;;;3.15;1.30;;;;;;;15.02;59.89;97414.44;4914211;28;20645;-85
2023/09/15 04:06:38;;;;;;;2.80;1.40;;;;;;;15.04;58.98;97412.31;4913814;28;20125;-85
2023/09/15 04:09:10;;;;;;;1.58;1.13;;;;;;;15.13;59.70;97425.66;4904777;28;20102;-85
2023/09/15 04:11:37;;;;;;;2.88;1.73;;;;;;;14.95;60.00;97400.81;4902883;28;20244;-85
2023/09/15 04:14:03;;;;;;;4.28;1.75;;;;;;;15.08;59.60;97423.06;4940404;28;20196;-85
2023/09/15 04:16:29;;;;;;;2.45;1.67;;;;;;;14.93;59.88;97403.72;4928355;28;20030;-85
2023/09/15 04:18:54;;;;;;;2.17;1.52;;;;;;;15.08;59.75;97429.13;4925042;28;20626;-85
2023/09/15 04:21:21;;;;;;;4.43;1.92;;;;;;;15.03;59.87;97410.78;4932943;28;20275;-85
2023/09/15 04:23:46;;;;;;;3.13;1.67;;;;;;;14.99;59.51;97393.97;4937853;28;20044;-84
2023/09/15 04:26:12;;;;;;;2.83;1.60;;;;;;;15.19;59.61;97423.84;4928357;28;20465;-84
2023/09/15 04:28:37;;;;;;;1.88;1.63;;;;;;;15.01;59.94;97405.00;4910960;28;20264;-85
2023/09/15 04:31:03;;;;;;;3.55;1.60;;;;;;;15.02;60.58;97414.44;4915385;28;20476;-85
2023/09/15 04:33:28;;;;;;;5.90;1.65;;;;;;;14.99;60.10;97422.81;4919129;28;20626;-85
2023/09/15 04:35:54;;;;;;;3.80;2.08;;;;;;;14.98;60.26;97418.66;4931091;28;20195;-85
2023/09/15 04:38:19;;;;;;;4.13;1.50;;;;;;;15.03;60.79;97416.03;4925727;28;20714;-85
2023/09/15 04:40:44;;;;;;;2.85;1.70;;;;;;;14.84;60.34;97401.88;4935463;28;20036;-85
2023/09/15 04:43:12;;;;;;;2.10;1.70;;;;;;;15.08;60.46;97417.81;4946569;28;20150;-85
2023/09/15 04:45:38;;;;;;;3.75;2.00;;;;;;;15.13;60.25;97425.66;4938078;28;20112;-85
2023/09/15 04:48:04;;;;;;;4.00;2.08;;;;;;;14.91;60.18;97403.19;4937772;28;20202;-85
2023/09/15 04:50:29;;;;;;;3.22;2.10;;;;;;;14.90;59.83;97406.88;4931790;28;20570;-85
2023/09/15 04:52:55;;;;;;;2.75;1.88;;;;;;;15.06;60.02;97420.72;4929195;28;20170;-85
2023/09/15 04:55:22;;;;;;;4.93;2.22;;;;;;;14.94;60.34;97407.13;4899636;28;20286;-85
2023/09/15 04:57:47;;;;;;;2.65;1.58;;;;;;;15.10;60.88;97426.22;4900811;28;20294;-85
2023/09/15 05:00:21;;;;;;;3.45;1.80;;;;;;;15.11;60.63;97431.22;4911573;28;20259;-85
2023/09/15 05:02:47;;;;;;;2.92;1.45;;;;;;;15.12;59.86;97419.66;4910584;28;20098;-85
2023/09/15 05:05:12;;;;;;;2.78;1.90;;;;;;;15.14;60.39;97420.16;4926847;28;20205;-85
2023/09/15 05:07:38;;;;;;;3.08;1.80;;;;;;;15.16;59.36;97423.31;4897208;28;20691;-85
2023/09/15 05:10:04;;;;;;;4.13;1.55;;;;;;;15.17;59.45;97422.25;4914807;28;20279;-85
2023/09/15 05:12:29;;;;;;;2.65;1.50;;;;;;;15.04;59.98;97407.09;4912988;28;20244;-85
2023/09/15 05:14:55;;;;;;;2.70;1.70;;;;;;;15.19;60.53;97437.72;4894533;28;20283;-85
2023/09/15 05:17:22;;;;;;;3.13;1.83;;;;;;;15.13;59.89;97434.34;4896784;28;20233;-85
2023/09/15 05:19:49;;;;;;;2.15;1.75;;;;;;;15.03;60.53;97423.88;4899660;28;20167;-85
2023/09/15 05:22:15;;;;;;;3.00;1.40;;;;;;;15.03;60.14;97437.00;4900168;28;20167;-85
2023/09/15 05:24:41;;;;;;;5.38;2.53;;;;;;;14.93;61.01;97424.69;4920876;28;20243;-84
2023/09/15 05:27:06;;;;;;;4.53;1.58;;;;;;;14.86;60.02;97426.03;4931600;28;20030;-85
2023/09/15 05:29:32;;;;;;;3.47;1.67;;;;;;;14.60;60.61;97403.25;4927148;28;20081;-84
2023/09/15 05:31:57;;;;;;;3.88;2.03;;;;;;;14.71;60.20;97427.59;4927512;28;20188;-84
2023/09/15 05:34:23;;;;;;;3.67;1.35;;;;;;;14.84;60.52;97441.22;4927030;28;20407;-84
2023/09/15 05:36:49;;;;;;;2.17;1.48;;;;;;;14.82;60.71;97443.31;4927226;28;20205;-84
2023/09/15 05:39:14;;;;;;;3.65;1.85;;;;;;;14.78;60.73;97433.34;4933180;28;20178;-85
2023/09/15 05:41:40;;;;;;;2.55;1.85;;;;;;;14.80;61.08;97433.09;4930482;28;20702;-85
2023/09/15 05:44:06;;;;;;;2.85;1.90;;;;;;;14.81;61.20;97434.69;4911613;28;20209;-84
2023/09/15 05:46:31;;;;;;;2.40;1.83;;;;;;;14.75;60.85;97420.00;4926833;28;20211;-84
2023/09/15 05:48:56;;;;;;;3.92;2.40;;;;;;;14.81;61.31;97424.19;4913039;28;20234;-84
2023/09/15 05:51:22;;;;;;;2.22;1.55;;;;;;;14.85;61.10;97434.94;4921294;28;20197;-85
2023/09/15 05:53:47;;;;;;;3.53;2.13;;;;;;;14.90;61.22;97437.53;4920680;28;20675;-84
2023/09/15 05:56:13;;;;;;;3.72;1.88;;;;;;;14.96;60.33;97437.28;4905783;28;20193;-84
2023/09/15 05:58:38;;;;;;;5.35;2.05;;;;;;;14.99;61.40;97438.56;4909628;28;20218;-84
2023/09/15 06:01:06;;;;;;;4.82;1.95;;;;;;;14.92;61.10;97420.47;4920324;28;20146;-85
2023/09/15 06:03:31;;;;;;;3.15;1.83;;;;;;;15.06;60.39;97431.22;4898111;28;20439;-85
2023/09/15 06:05:57;;;;;;;3.33;1.80;;;;;;;15.07;61.40;97426.75;4889687;28;20541;-84
2023/09/15 06:08:22;;;;;;;4.57;2.17;;;;;;;15.22;61.37;97444.28;4903232;28;20215;-84
2023/09/15 06:10:48;;;;;;;3.72;2.28;;;;;;;15.21;61.64;97448.72;4902389;28;20599;-84
2023/09/15 06:13:14;;;;;;;3.80;1.92;;;;;;;15.10;61.67;97424.38;4902119;28;20210;-84
2023/09/15 06:15:40;;;;;;;3.63;2.20;;;;;;;15.31;61.36;97442.69;4920853;28;20191;-84
2023/09/15 06:18:05;;;;;;;4.13;1.98;;;;;;;15.48;60.99;97447.59;4916230;28;20805;-85
2023/09/15 06:20:31;;;;;;;3.10;1.45;;;;;;;15.60;61.02;97448.06;4931026;28;20210;-85
2023/09/15 06:22:57;;;;;;;5.32;2.13;;;;;;;15.47;60.74;97435.53;4911133;28;20204;-85
2023/09/15 06:25:23;;;;;;;2.97;2.10;;;;;;;15.43;60.82;97440.53;4908221;28;20076;-85
2023/09/15 06:27:49;;;;;;;3.00;1.83;;;;;;;15.51;61.49;97447.84;4922534;28;20667;-84
2023/09/15 06:30:15;;;;;;;6.20;2.17;;;;;;;15.59;60.91;97443.09;4919379;28;20635;-84
2023/09/15 06:32:40;;;;;;;3.08;2.22;;;;;;;15.55;61.06;97420.00;4907719;28;20600;-84
2023/09/15 06:35:06;;;;;;;4.50;2.30;;;;;;;15.76;60.91;97440.91;4906414;28;20427;-85
2023/09/15 06:37:31;;;;;;;3.20;1.95;;;;;;;15.73;60.28;97430.94;4931969;28;20080;-85
2023/09/15 06:39:57;;;;;;;4.53;1.98;;;;;;;15.87;59.93;97434.56;4907751;28;20218;-84
2023/09/15 06:42:22;;;;;;;8.02;3.40;;;;;;;15.93;60.70;97431.91;4908799;28;20649;-85
2023/09/15 06:44:48;;;;;;;3.03;1.88;;;;;;;16.00;60.11;97430.53;4907821;28;20244;-85
2023/09/15 06:47:13;;;;;;;4.63;2.03;;;;;;;16.09;59.78;97426.28;4912852;28;20179;-85
2023/09/15 06:49:38;;;;;;;6.35;2.10;;;;;;;16.06;59.56;97426.06;4937577;28;20724;-84
2023/09/15 06:52:05;;;;;;;4.15;2.20;;;;;;;16.16;59.16;97428.59;4919356;28;20201;-85
2023/09/15 06:54:30;;;;;;;3.67;1.92;;;;;;;16.25;59.67;97429.56;4912513;28;20502;-84
2023/09/15 06:56:56;;;;;;;3.17;1.75;;;;;;;16.43;59.59;97432.59;4922890;28;20034;-85
2023/09/15 06:59:21;;;;;;;2.97;2.00;;;;;;;16.58;59.61;97437.72;4957523;28;20202;-85
2023/09/15 07:01:46;;;;;;;2.75;1.73;;;;;;;16.65;59.31;97434.78;4938771;28;20273;-85
2023/09/15 07:04:13;;;;;;;4.18;1.90;;;;;;;16.79;58.95;97437.53;4921377;28;20114;-85
2023/09/15 07:06:41;;;;;;;4.78;1.98;;;;;;;16.64;58.28;97399.81;4926522;28;20703;-84
2023/09/15 07:09:07;;;;;;;2.45;1.75;;;;;;;17.00;58.70;97433.66;4930810;28;20605;-85
2023/09/15 07:11:32;;;;;;;4.65;2.00;;;;;;;17.12;57.88;97421.97;4938992;28;20253;-85
2023/09/15 07:13:58;;;;;;;4.20;1.92;;;;;;;17.22;57.67;97427.91;4930835;28;20224;-87
2023/09/15 07:16:23;;;;;;;3.00;1.80;;;;;;;17.36;57.81;97427.22;4912028;28;20673;-85
2023/09/15 07:18:49;;;;;;;4.18;2.50;;;;;;;17.59;57.23;97449.31;4938601;28;20279;-85
2023/09/15 07:21:14;;;;;;;4.63;1.83;;;;;;;17.66;57.28;97439.22;4909160;28;20197;-86
2023/09/15 07:23:39;;;;;;;3.28;1.38;;;;;;;17.79;56.49;97433.25;4924792;28;20186;-85
2023/09/15 07:26:05;;;;;;;4.32;1.83;;;;;;;17.89;55.88;97437.63;4919363;28;20189;-86
2023/09/15 07:28:30;;;;;;;2.72;1.95;;;;;;;17.88;56.10;97427.38;4911061;28;20206;-86
2023/09/15 07:31:06;;;;;;;2.28;1.50;;;;;;;18.14;54.77;97401.41;4910376;28;20443;-86
2023/09/15 07:33:32;;;;;;;3.97;1.70;;;;;;;18.36;54.82;97442.22;4930408;28;20181;-86
2023/09/15 07:36:03;;;;;;;3.70;1.52;;;;;;;18.60;54.62;97439.44;4936525;28;20204;-86
2023/09/15 07:38:29;;;;;;;5.35;1.90;;;;;;;18.71;54.26;97433.72;4910710;28;20229;-86
2023/09/15 07:40:54;;;;;;;4.75;2.13;;;;;;;18.86;53.63;97435.31;4924698;28;20652;-88
2023/09/15 07:43:20;;;;;;;2.83;1.60;;;;;;;19.05;52.96;97435.22;4940732;28;20270;-85
2023/09/15 07:45:47;;;;;;;3.65;1.77;;;;;;;19.18;52.50;97423.09;4914630;28;20632;-87
2023/09/15 07:48:13;;;;;;;2.60;1.70;;;;;;;19.25;52.67;97420.09;4940585;28;20218;-89
2023/09/15 07:50:39;;;;;;;2.85;1.70;;;;;;;19.24;53.00;97416.66;4931010;28;20155;-87
2023/09/15 07:53:04;;;;;;;2.83;1.70;;;;;;;19.24;52.62;97406.09;4900190;28;20256;-88
2023/09/15 07:55:30;;;;;;;3.58;1.67;;;;;;;19.49;52.37;97396.09;4920451;28;20273;-87
2023/09/15 07:57:56;;;;;;;5.63;1.90;;;;;;;19.53;52.27;97383.06;4930062;28;20185;-88
2023/09/15 08:00:21;;;;;;;3.03;1.63;;;;;;;19.60;52.57;97401.91;4924345;28;20567;-87
2023/09/15 08:02:46;;;;;;;5.20;1.80;;;;;;;19.79;51.32;97380.66;4938753;28;20224;-87
2023/09/15 08:05:12;;;;;;;2.83;1.40;;;;;;;20.19;51.40;97404.59;4911366;28;20646;-86
2023/09/15 08:07:37;;;;;;;4.28;1.67;;;;;;;20.29;51.28;97406.19;4907605;28;20614;-87
2023/09/15 08:10:04;;;;;;;2.22;1.45;;;;;;;20.26;51.07;97386.44;4931227;28;20284;-88
2023/09/15 08:12:29;;;;;;;2.70;1.85;;;;;;;20.46;51.05;97422.19;4933490;28;20262;-88
2023/09/15 08:14:55;;;;;;;2.13;1.60;;;;;;;20.75;50.68;97416.47;5031873;23;21029;-85
2023/09/15 08:17:21;;;;;;;2.58;1.80;;;;;;;21.04;50.44;97414.38;4935116;28;20207;-85
2023/09/15 08:19:46;;;;;;;4.30;2.10;;;;;;;21.21;49.91;97413.66;4942644;28;20252;-86
2023/09/15 08:22:13;;;;;;;4.13;2.00;;;;;;;21.23;49.53;97400.88;4922602;28;20197;-85
2023/09/15 08:24:42;;;;;;;2.88;2.05;;;;;;;21.49;49.59;97416.88;4939585;28;20168;-83
2023/09/15 08:27:07;;;;;;;2.83;1.77;;;;;;;21.60;49.06;97404.09;5000313;23;20251;-83
2023/09/15 08:29:32;;;;;;;5.43;1.83;;;;;;;21.81;48.83;97420.16;4942489;28;20282;-84
2023/09/15 08:31:59;;;;;;;3.80;1.88;;;;;;;21.82;49.21;97414.56;5075032;23;20029;-85
2023/09/15 08:34:24;;;;;;;4.22;1.95;;;;;;;21.86;48.96;97412.81;5070091;23;20187;-82
2023/09/15 08:36:50;;;;;;;3.42;2.10;;;;;;;22.23;48.37;97412.50;4916481;28;20213;-84
2023/09/15 08:39:15;;;;;;;2.42;1.90;;;;;;;22.50;47.78;97414.06;4904641;28;20192;-83
2023/09/15 08:42:04;;;;;;;3.55;1.75;;;;;;;22.73;47.36;97411.94;4910617;28;20139;-83
2023/09/15 08:44:31;;;;;;;3.85;2.08;;;;;;;22.94;47.13;97408.56;4921409;28;20599;-83
2023/09/15 08:47:00;;;;;;;2.92;1.98;;;;;;;23.30;46.75;97407.34;4910191;28;20209;-84
2023/09/15 08:49:29;;;;;;;2.65;2.30;;;;;;;23.37;46.23;97413.72;4932865;28;20185;-85
2023/09/15 08:51:55;;;;;;;2.97;1.98;;;;;;;23.49;46.11;97402.38;4939611;28;20227;-83
2023/09/15 08:54:21;;;;;;;4.13;2.17;;;;;;;23.77;45.91;97398.41;4907425;28;20201;-84
2023/09/15 08:56:47;;;;;;;2.85;1.88;;;;;;;23.70;46.74;97407.69;4947246;28;20226;-85
2023/09/15 08:59:14;;;;;;;3.58;2.30;;;;;;;23.80;45.71;97403.09;4944310;28;20241;-84
2023/09/15 09:01:40;;;;;;;2.00;1.88;;;;;;;23.86;46.05;97402.59;4919087;28;20253;-85
2023/09/15 09:04:05;;;;;;;2.28;2.08;;;;;;;24.18;45.28;97410.13;4908054;28;20182;-86
2023/09/15 09:06:34;;;;;;;3.33;2.38;;;;;;;24.20;45.32;97395.41;4912939;28;20297;-86
2023/09/15 09:09:02;;;;;;;3.80;2.17;;;;;;;24.32;43.97;97386.69;4943412;28;20377;-85
2023/09/15 09:11:28;;;;;;;3.22;2.13;;;;;;;24.22;45.79;97387.88;4941486;28;20175;-85
2023/09/15 09:13:54;;;;;;;2.38;2.17;;;;;;;24.12;45.21;97380.31;4914349;28;20564;-85
2023/09/15 09:16:20;;;;;;;2.08;1.88;;;;;;;24.21;45.71;97398.84;4932241;28;20123;-85
2023/09/15 09:18:57;;;;;;;2.25;2.00;;;;;;;24.48;44.88;97394.81;4922047;23;20220;-86
2023/09/15 09:21:25;;;;;;;2.33;2.10;;;;;;;24.28;45.32;97391.09;4931839;28;20208;-84
2023/09/15 09:23:56;;;;;;;3.72;2.28;;;;;;;24.65;45.33;97401.84;4935444;28;20221;-85
2023/09/15 09:26:23;;;;;;;3.90;2.28;;;;;;;24.54;45.38;97400.69;4940093;28;20192;-86
2023/09/15 09:28:49;;;;;;;2.58;2.15;;;;;;;24.86;45.43;97394.56;4942145;28;20181;-86
2023/09/15 09:31:15;;;;;;;2.58;2.38;;;;;;;24.79;44.24;97394.31;4925096;28;20291;-84
2023/09/15 09:33:42;;;;;;;3.35;2.22;;;;;;;25.00;44.14;97385.44;4933910;28;20179;-86
2023/09/15 09:36:12;;;;;;;3.92;2.33;;;;;;;25.20;44.90;97383.78;4939068;28;20224;-85
2023/09/15 09:38:38;;;;;;;2.83;2.08;;;;;;;25.18;43.80;97354.03;4923417;28;20275;-86
2023/09/15 09:41:04;;;;;;;3.55;2.88;;;;;;;25.02;44.00;97349.38;4913295;28;20129;-85
2023/09/15 09:43:30;;;;;;;3.92;2.33;;;;;;;25.17;43.14;97341.78;4939095;28;20262;-85
2023/09/15 09:45:55;;;;;;;3.55;3.25;;;;;;;25.60;43.62;97361.72;4945017;28;20163;-86
2023/09/15 09:48:23;;;;;;;3.45;2.47;;;;;;;26.04;43.00;97377.81;4943581;28;20204;-84
2023/09/15 09:50:49;;;;;;;3.15;2.85;;;;;;;26.02;42.77;97371.25;4917882;28;20616;-85
2023/09/15 09:53:15;;;;;;;3.20;2.90;;;;;;;26.00;42.96;97362.84;5022629;23;20282;-86
2023/09/15 09:55:45;;;;;;;2.72;2.30;;;;;;;26.17;43.72;97367.84;4934367;28;20146;-85
2023/09/15 09:58:14;;;;;;;5.28;2.80;;;;;;;26.47;42.44;97364.78;4943816;28;20216;-86
2023/09/15 10:00:41;;;;;;;4.93;3.03;;;;;;;26.70;42.73;97351.63;4934030;28;20222;-85
2023/09/15 10:03:06;;;;;;;3.03;2.80;;;;;;;26.85;42.22;97358.84;4926081;28;20080;-85
2023/09/15 10:05:34;;;;;;;2.97;2.72;;;;;;;27.28;41.61;97367.06;4928868;28;20113;-84
2023/09/15 10:08:00;;;;;;;4.50;3.42;;;;;;;27.37;40.62;97356.19;4923946;28;20022;-86
2023/09/15 10:10:26;;;;;;;3.58;3.25;;;;;;;27.49;40.22;97352.56;4961014;28;20714;-84
2023/09/15 10:12:52;;;;;;;4.15;3.10;;;;;;;27.84;40.02;97357.88;4953160;28;20187;-84
2023/09/15 10:15:17;;;;;;;3.60;3.30;;;;;;;27.72;40.54;97325.91;4922216;28;20244;-86
2023/09/15 10:17:43;;;;;;;3.58;2.95;;;;;;;27.89;38.87;97349.53;4939909;28;20114;-84
2023/09/15 10:20:09;;;;;;;3.97;2.90;;;;;;;28.19;37.73;97347.06;4916160;28;20038;-84
2023/09/15 10:22:34;;;;;;;2.95;2.65;;;;;;;28.47;36.56;97335.28;4939761;28;20225;-86
2023/09/15 10:25:01;;;;;;;4.93;3.10;;;;;;;28.64;37.85;97327.91;4941657;28;20193;-87
2023/09/15 10:27:28;;;;;;;3.40;2.72;;;;;;;28.76;37.43;97330.41;4942148;28;20646;-85
2023/09/15 10:30:00;;;;;;;3.17;2.95;;;;;;;28.66;36.88;97331.00;4933052;28;20107;-85
2023/09/15 10:32:26;;;;;;;3.10;2.78;;;;;;;28.56;35.90;97330.47;4938655;28;20686;-85
2023/09/15 10:34:51;;;;;;;3.67;2.67;;;;;;;28.47;37.12;97335.28;4950263;28;20285;-88
2023/09/15 10:37:17;;;;;;;3.10;2.90;;;;;;;28.48;37.16;97326.13;4926722;28;20293;-87
2023/09/15 10:39:42;;;;;;;3.38;3.08;;;;;;;28.83;35.69;97333.16;4915830;28;20203;-85
2023/09/15 10:42:13;;;;;;;3.50;2.78;;;;;;;29.28;37.60;97336.88;4920038;28;20163;-84
2023/09/15 10:44:40;;;;;;;2.72;2.53;;;;;;;29.30;36.25;97333.81;4907707;28;20237;-85
2023/09/15 10:47:20;;;;;;;3.53;3.22;;;;;;;29.52;35.58;97319.53;4903308;28;20194;-84
2023/09/15 10:49:53;;;;;;;3.38;2.63;;;;;;;29.61;35.66;97324.63;4932902;28;20209;-85
2023/09/15 10:52:33;;;;;;;3.17;2.97;;;;;;;29.43;36.32;97331.69;4914655;28;20237;-84
2023/09/15 10:54:59;;;;;;;5.07;3.22;;;;;;;29.56;34.67;97324.97;4916033;28;20702;-84
2023/09/15 10:57:25;;;;;;;3.60;3.30;;;;;;;29.62;34.99;97315.44;4914028;28;20395;-86
2023/09/15 10:59:54;;;;;;;3.38;3.17;;;;;;;29.85;33.36;97309.16;4905153;28;20193;-87
2023/09/15 11:02:20;;;;;;;2.80;2.60;;;;;;;30.15;33.30;97314.44;4923350;28;20103;-86
2023/09/15 11:04:47;;;;;;;3.20;2.90;;;;;;;29.62;33.12;97298.56;4907413;28;20194;-87
2023/09/15 11:07:13;;;;;;;2.80;2.70;;;;;;;29.94;34.77;97304.28;4921813;28;20288;-86
2023/09/15 11:09:41;;;;;;;2.58;2.38;;;;;;;30.50;32.60;97304.38;4921281;28;20671;-85
2023/09/15 11:12:07;;;;;;;3.00;2.67;;;;;;;30.57;32.53;97286.41;4934939;28;20202;-86
2023/09/15 11:14:32;;;;;;;3.13;2.92;;;;;;;30.30;32.62;97280.44;4949497;28;20161;-84
2023/09/15 11:17:03;;;;;;;3.10;2.90;;;;;;;30.62;32.23;97306.78;4951593;28;20544;-85
2023/09/15 11:19:32;;;;;;;3.35;3.10;;;;;;;30.46;31.29;97290.16;4946546;28;20041;-84
2023/09/15 11:22:04;;;;;;;2.95;2.70;;;;;;;30.28;33.00;97295.38;4949737;28;20253;-83
2023/09/15 11:24:33;;;;;;;3.53;2.85;;;;;;;30.28;32.24;97285.41;4928778;28;20720;-86
2023/09/15 11:27:00;;;;;;;3.72;2.97;;;;;;;29.88;34.05;97273.53;4910983;28;20298;-85
2023/09/15 11:29:31;;;;;;;3.53;2.90;;;;;;;29.64;33.88;97286.31;4971992;28;20111;-85
2023/09/15 11:31:58;;;;;;;3.20;2.90;;;;;;;29.87;33.33;97286.19;4956433;28;20126;-85